Alder, Montana
Current Conditions -  °F | °C
As of 4:53 PM on Saturday 20 Dec 2014 (Local Time) from KDLN Reporting Station
Overcast Overcast  
Wind Chill: 28°   Ceiling: 6000
Heat Index: 35°   Visibility: 10mi
Dew Point: 26°   Wind: 9mph
Humidity: 70%   Direction: 190°S
Pressure: 29.82"   Gusts: NA
Location:  45.32°N, 112.11°W
Report Text: KDLN 202353Z AUTO 19008KT 10SM OVC060 02/M03 A2982 RMK AO2 SLP118 T00171033 10028 21006 58009
Loading
Personal Weather Stations






























Interactive Weather Map New forecast layout! Learn more

10-Day Weather Forecast

Advertisements
Track Severe Weather on mobile